Yunta, Australia
Current Conditions -  °F | °C
As of 1:00 AM on Sunday 26 Oct 2014 (Local Time) from YBHI Reporting Station
Clear Clear  
Wind Chill: 72°   Ceiling: Unl
Heat Index: 72°   Visibility: 6mi
Dew Point: 30°   Wind: 0mph
Humidity: 22%   Direction: NA
Pressure: 29.94"   Gusts: NA
Location:  32.58°S, 139.56°E
Report Text: YBHI 251500Z AUTO 00000KT 9999 // NCD 22/M01 Q1014
Loading
Personal Weather Stations






























Interactive Weather Map
Tropical Storm Tracking
New forecast layout! Learn more

10-Day Weather Forecast

Advertisements
Track Severe Weather on mobile